createdAt,value
2023-05-05T00:01:25.726Z,99108.22
2023-05-05T00:03:52.578Z,99106.78
2023-05-05T00:06:19.583Z,99097.19
2023-05-05T00:08:46.846Z,99099.28
2023-05-05T00:11:13.630Z,99108.22
2023-05-05T00:13:40.350Z,99105.31
2023-05-05T00:16:07.304Z,99109.91
2023-05-05T00:18:34.235Z,99114.69
2023-05-05T00:21:01.032Z,99109.06
2023-05-05T00:23:27.818Z,99094.91
2023-05-05T00:25:54.495Z,99103.66
2023-05-05T00:28:21.125Z,99105.75
2023-05-05T00:30:47.871Z,99091.81
2023-05-05T00:33:15.059Z,99103.25
2023-05-05T00:35:42.207Z,99101.19
2023-05-05T00:38:09.425Z,99092.44
2023-05-05T00:40:37.867Z,99098.84
2023-05-05T00:43:05.118Z,99116.53
2023-05-05T00:45:31.920Z,99103.22
2023-05-05T00:48:00.518Z,99107.19
2023-05-05T00:50:30.059Z,99105.66
2023-05-05T00:53:00.735Z,99123.38
2023-05-05T00:55:29.238Z,99112.09
2023-05-05T00:57:57.791Z,99103.06
2023-05-05T01:00:25.134Z,99107.16
2023-05-05T01:02:52.600Z,99103.94
2023-05-05T01:05:21.804Z,99103.56
2023-05-05T01:08:06.556Z,99110.66
2023-05-05T01:10:41.199Z,99111.94
2023-05-05T01:13:31.529Z,99096.28
2023-05-05T01:16:23.943Z,99114.13
2023-05-05T01:19:09.624Z,99103.72
2023-05-05T01:21:41.366Z,99103.25
2023-05-05T01:24:29.668Z,99102.06
2023-05-05T01:27:34.182Z,99101.22
2023-05-05T01:30:26.220Z,99096.16
2023-05-05T01:32:56.759Z,99107.50
2023-05-05T01:35:31.834Z,99098.56
2023-05-05T01:38:22.630Z,99105.84
2023-05-05T01:40:59.717Z,99075.03
2023-05-05T01:43:29.457Z,99094.88
2023-05-05T01:45:57.307Z,99084.88
2023-05-05T01:48:26.025Z,99078.25
2023-05-05T01:50:53.319Z,99089.72
2023-05-05T01:53:21.267Z,99086.34
2023-05-05T01:55:50.414Z,99090.88
2023-05-05T01:58:18.388Z,99072.09
2023-05-05T02:00:46.849Z,99088.56
2023-05-05T02:03:15.746Z,99084.53
2023-05-05T02:05:47.105Z,99091.81
2023-05-05T02:08:15.052Z,99087.69
2023-05-05T02:10:43.464Z,99084.06
2023-05-05T02:13:15.357Z,99086.59
2023-05-05T02:15:43.200Z,99066.28
2023-05-05T02:18:10.369Z,99084.91
2023-05-05T02:20:41.061Z,99087.66
2023-05-05T02:23:08.510Z,99085.56
2023-05-05T02:25:41.918Z,99088.75
2023-05-05T02:28:17.276Z,99075.38
2023-05-05T02:30:47.200Z,99068.28
2023-05-05T02:33:19.086Z,99083.78
2023-05-05T02:35:47.331Z,99072.53
2023-05-05T02:38:17.837Z,99073.19
2023-05-05T02:40:50.245Z,99087.03
2023-05-05T02:43:21.369Z,99077.78
2023-05-05T02:45:48.436Z,99078.06
2023-05-05T02:48:15.986Z,99086.53
2023-05-05T02:50:42.619Z,99082.25
2023-05-05T02:53:26.788Z,99084.69
2023-05-05T02:56:16.225Z,99068.78
2023-05-05T02:58:54.531Z,99087.94
2023-05-05T03:01:46.487Z,99093.94
2023-05-05T03:04:25.823Z,99077.38
2023-05-05T03:06:58.273Z,99085.34
2023-05-05T03:09:51.694Z,99086.94
2023-05-05T03:12:22.362Z,99087.03
2023-05-05T03:15:02.202Z,99082.34
2023-05-05T03:17:31.770Z,99087.72
2023-05-05T03:20:04.753Z,99089.94
2023-05-05T03:22:37.824Z,99076.31
2023-05-05T03:25:07.690Z,99074.25
2023-05-05T03:27:34.371Z,99085.59
2023-05-05T03:30:01.391Z,99076.44
2023-05-05T03:32:29.020Z,99093.13
2023-05-05T03:34:56.304Z,99091.91
2023-05-05T03:37:29.052Z,99077.38
2023-05-05T03:39:57.147Z,99089.59
2023-05-05T03:42:23.817Z,99061.94
2023-05-05T03:44:53.554Z,99083.25
2023-05-05T03:47:24.525Z,99085.28
2023-05-05T03:49:52.401Z,99078.28
2023-05-05T03:52:19.286Z,99071.44
2023-05-05T03:54:46.430Z,99080.53
2023-05-05T03:57:13.069Z,99074.81
2023-05-05T03:59:40.960Z,99071.03
2023-05-05T04:02:08.562Z,99069.41
2023-05-05T04:04:35.692Z,99062.31
2023-05-05T04:07:02.929Z,99065.34
2023-05-05T04:09:29.673Z,99067.06
2023-05-05T04:11:56.700Z,99070.81
2023-05-05T04:14:24.412Z,99076.81
2023-05-05T04:16:51.752Z,99078.72
2023-05-05T04:19:18.962Z,99069.56
2023-05-05T04:21:46.162Z,99083.91
2023-05-05T04:24:13.560Z,99073.97
2023-05-05T04:26:40.261Z,99065.19
2023-05-05T04:29:06.982Z,99081.50
2023-05-05T04:31:33.905Z,99081.22
2023-05-05T04:34:00.664Z,99093.03
2023-05-05T04:36:27.448Z,99076.22
2023-05-05T04:38:54.507Z,99079.81
2023-05-05T04:41:21.463Z,99079.50
2023-05-05T04:43:48.776Z,99078.53
2023-05-05T04:46:15.772Z,99091.75
2023-05-05T04:48:42.890Z,99096.78
2023-05-05T04:51:09.680Z,99099.16
2023-05-05T04:53:37.562Z,99076.28
2023-05-05T04:56:04.353Z,99101.41
2023-05-05T04:58:31.253Z,99082.50
2023-05-05T05:00:58.491Z,99105.88
2023-05-05T05:03:25.364Z,99105.09
2023-05-05T05:05:52.597Z,99101.19
2023-05-05T05:08:19.652Z,99103.69
2023-05-05T05:10:46.287Z,99106.84
2023-05-05T05:13:13.224Z,99107.88
2023-05-05T05:15:40.722Z,99110.84
2023-05-05T05:18:07.540Z,99124.44
2023-05-05T05:20:34.300Z,99113.81
2023-05-05T05:23:02.423Z,99121.13
2023-05-05T05:25:30.796Z,99119.69
2023-05-05T05:28:08.981Z,99129.56
2023-05-05T05:30:41.678Z,99128.13
2023-05-05T05:33:10.781Z,99107.31
2023-05-05T05:35:37.455Z,99117.13
2023-05-05T05:38:04.155Z,99112.34
2023-05-05T05:40:31.570Z,99094.84
2023-05-05T05:42:59.062Z,99124.44
2023-05-05T05:45:26.727Z,99111.09
2023-05-05T05:47:53.449Z,99106.16
2023-05-05T05:50:20.933Z,99127.81
2023-05-05T05:52:47.821Z,99129.28
2023-05-05T05:55:15.386Z,99124.47
2023-05-05T05:57:42.674Z,99116.56
2023-05-05T06:00:11.930Z,99123.25
2023-05-05T06:02:38.633Z,99117.59
2023-05-05T06:05:09.183Z,99126.78
2023-05-05T06:07:36.435Z,99111.38
2023-05-05T06:10:18.545Z,99124.44
2023-05-05T06:12:50.847Z,99127.75
2023-05-05T06:15:18.479Z,99129.81
2023-05-05T06:17:45.626Z,99125.22
2023-05-05T06:20:13.829Z,99109.56
2023-05-05T06:22:40.766Z,99143.44
2023-05-05T06:25:08.046Z,99138.00
2023-05-05T06:27:35.205Z,99138.38
2023-05-05T06:30:01.858Z,99138.56
2023-05-05T06:32:28.441Z,99120.19
2023-05-05T06:34:55.073Z,99140.25
2023-05-05T06:37:21.970Z,99130.41
2023-05-05T06:39:49.109Z,99138.16
2023-05-05T06:42:15.752Z,99133.50
2023-05-05T06:44:42.305Z,99124.00
2023-05-05T06:47:08.980Z,99111.22
2023-05-05T06:49:35.641Z,99128.50
2023-05-05T06:52:02.390Z,99121.22
2023-05-05T06:54:29.041Z,99140.44
2023-05-05T06:56:57.530Z,99114.16
2023-05-05T06:59:26.130Z,99114.72
2023-05-05T07:01:52.748Z,99138.75
2023-05-05T07:04:19.463Z,99117.66
2023-05-05T07:06:46.140Z,99123.38
2023-05-05T07:09:13.217Z,99116.50
2023-05-05T07:11:40.601Z,99133.28
2023-05-05T07:14:07.135Z,99141.47
2023-05-05T07:16:34.735Z,99130.63
2023-05-05T07:19:01.581Z,99106.00
2023-05-05T07:21:28.244Z,99138.94
2023-05-05T07:23:54.857Z,99152.84
2023-05-05T07:26:21.496Z,99148.56
2023-05-05T07:28:48.124Z,99127.50
2023-05-05T07:31:14.804Z,99114.22
2023-05-05T07:33:42.142Z,99141.75
2023-05-05T07:36:08.976Z,99143.56
2023-05-05T07:38:37.944Z,99144.97
2023-05-05T07:41:04.708Z,99120.94
2023-05-05T07:43:31.293Z,99141.91
2023-05-05T07:45:58.035Z,99129.75
2023-05-05T07:48:24.648Z,99153.97
2023-05-05T07:50:52.464Z,99130.06
2023-05-05T07:53:19.153Z,99148.25
2023-05-05T07:55:46.218Z,99121.50
2023-05-05T07:58:12.823Z,99147.97
2023-05-05T08:00:39.742Z,99133.72
2023-05-05T08:03:07.188Z,99123.44
2023-05-05T08:05:36.016Z,99128.78
2023-05-05T08:08:03.611Z,99131.91
2023-05-05T08:10:30.159Z,99103.63
2023-05-05T08:12:56.797Z,99126.91
2023-05-05T08:15:23.423Z,99114.94
2023-05-05T08:17:52.101Z,99134.31
2023-05-05T08:20:20.349Z,99113.66
2023-05-05T08:22:47.556Z,99087.16
2023-05-05T08:25:14.693Z,99119.09
2023-05-05T08:27:42.524Z,99125.25
2023-05-05T08:30:10.093Z,99090.97
2023-05-05T08:32:38.320Z,99119.31
2023-05-05T08:35:06.557Z,99109.84
2023-05-05T08:37:33.810Z,99085.69
2023-05-05T08:40:00.524Z,99109.66
2023-05-05T08:42:38.159Z,99107.72
2023-05-05T08:45:07.460Z,99109.78
2023-05-05T08:47:35.900Z,99106.56
2023-05-05T08:50:03.316Z,99105.53
2023-05-05T08:52:40.495Z,99091.19
2023-05-05T08:55:17.981Z,99077.66
2023-05-05T08:57:57.250Z,99081.53
2023-05-05T09:00:26.450Z,99086.09
2023-05-05T09:02:56.318Z,99099.88
2023-05-05T09:05:23.843Z,99102.69
2023-05-05T09:07:51.065Z,99100.38
2023-05-05T09:10:18.288Z,99103.25
2023-05-05T09:12:45.163Z,99092.22
2023-05-05T09:15:13.358Z,99105.84
2023-05-05T09:17:40.858Z,99108.22
2023-05-05T09:20:09.727Z,99077.88
2023-05-05T09:22:36.668Z,99098.22
2023-05-05T09:25:05.077Z,99076.19
2023-05-05T09:27:36.354Z,99063.34
2023-05-05T09:30:04.362Z,99072.50
2023-05-05T09:32:42.565Z,99082.13
2023-05-05T09:35:09.641Z,99073.78
2023-05-05T09:37:37.544Z,99066.78
2023-05-05T09:40:05.434Z,99084.41
2023-05-05T09:42:32.248Z,99069.47
2023-05-05T09:45:00.019Z,99081.84
2023-05-05T09:47:36.733Z,99078.97
2023-05-05T09:50:07.434Z,99057.41
2023-05-05T09:52:34.614Z,99054.66
2023-05-05T09:55:02.398Z,99040.81
2023-05-05T09:57:33.716Z,99039.19
2023-05-05T10:00:02.247Z,99056.13
2023-05-05T10:02:32.970Z,99060.03
2023-05-05T10:05:29.376Z,99047.44
2023-05-05T10:08:13.593Z,99037.56
2023-05-05T10:10:50.937Z,99044.81
2023-05-05T10:13:20.760Z,99027.72
2023-05-05T10:15:51.052Z,99028.72
2023-05-05T10:18:28.638Z,99036.84
2023-05-05T10:21:01.201Z,99023.63
2023-05-05T10:23:49.539Z,99041.06
2023-05-05T10:26:19.827Z,99033.97
2023-05-05T10:28:57.033Z,99032.81
2023-05-05T10:31:33.147Z,98998.69
2023-05-05T10:34:05.950Z,99006.44
2023-05-05T10:36:34.116Z,99026.94
2023-05-05T10:39:01.609Z,99004.63
2023-05-05T10:41:30.810Z,99021.97
2023-05-05T10:43:58.884Z,99010.34
2023-05-05T10:46:28.109Z,98980.59
2023-05-05T10:49:04.880Z,99031.91
2023-05-05T10:52:01.472Z,98998.94
2023-05-05T10:54:45.580Z,99016.19
2023-05-05T10:57:14.684Z,98993.13
2023-05-05T10:59:44.291Z,98998.69
2023-05-05T11:02:28.500Z,99002.66
2023-05-05T11:05:14.134Z,98980.25
2023-05-05T11:07:42.571Z,98987.28
2023-05-05T11:10:11.408Z,98986.34
2023-05-05T11:13:04.646Z,98975.81
2023-05-05T11:15:31.444Z,98977.31
2023-05-05T11:17:59.905Z,98975.53
2023-05-05T11:20:36.023Z,98987.19
2023-05-05T11:23:02.587Z,98972.63
2023-05-05T11:25:51.412Z,98959.25
2023-05-05T11:28:19.502Z,98960.53
2023-05-05T11:30:55.748Z,98964.75
2023-05-05T11:33:38.193Z,98964.78
2023-05-05T11:36:12.791Z,98956.41
2023-05-05T11:38:39.387Z,98946.13
2023-05-05T11:41:27.807Z,98929.03
2023-05-05T11:44:19.546Z,98941.78
2023-05-05T11:46:53.197Z,98942.34
2023-05-05T11:49:31.743Z,98937.72
2023-05-05T11:52:02.374Z,98927.53
2023-05-05T11:54:29.931Z,98921.69
2023-05-05T11:57:10.508Z,98933.69
2023-05-05T11:59:49.969Z,98919.78
2023-05-05T12:02:20.214Z,98916.63
2023-05-05T12:04:47.957Z,98898.00
2023-05-05T12:07:19.227Z,98899.94
2023-05-05T12:09:47.233Z,98919.22
2023-05-05T12:12:14.726Z,98881.16
2023-05-05T12:14:54.244Z,98901.91
2023-05-05T12:17:22.720Z,98907.09
2023-05-05T12:19:55.039Z,98892.22
2023-05-05T12:22:25.996Z,98879.41
2023-05-05T12:24:57.752Z,98885.38
2023-05-05T12:27:26.346Z,98897.28
2023-05-05T12:29:56.914Z,98898.84
2023-05-05T12:32:30.364Z,98900.97
2023-05-05T12:34:57.552Z,98900.66
2023-05-05T12:37:26.266Z,98898.19
2023-05-05T12:39:56.147Z,98888.56
2023-05-05T12:42:23.286Z,98869.69
2023-05-05T12:44:49.922Z,98894.16
2023-05-05T12:47:31.482Z,98869.13
2023-05-05T12:50:00.229Z,98880.75
2023-05-05T12:52:45.707Z,98873.56
2023-05-05T12:55:12.617Z,98841.16
2023-05-05T12:57:39.681Z,98868.59
2023-05-05T13:00:15.494Z,98859.63
2023-05-05T13:02:42.300Z,98872.47
2023-05-05T13:05:09.264Z,98861.97
2023-05-05T13:07:36.595Z,98830.41
2023-05-05T13:10:09.501Z,98860.47
2023-05-05T13:12:36.732Z,98839.28
2023-05-05T13:15:03.874Z,98841.25
2023-05-05T13:17:31.471Z,98823.34
2023-05-05T13:19:59.450Z,98829.25
2023-05-05T13:22:28.317Z,98816.16
2023-05-05T13:24:54.862Z,98811.22
2023-05-05T13:27:21.818Z,98805.19
2023-05-05T13:29:48.546Z,98828.38
2023-05-05T13:32:15.328Z,98793.75
2023-05-05T13:34:43.563Z,98808.91
2023-05-05T13:37:10.235Z,98805.25
2023-05-05T13:39:37.014Z,98795.69
2023-05-05T13:42:03.886Z,98813.16
2023-05-05T13:44:30.293Z,98821.69
2023-05-05T13:46:57.598Z,98780.97
2023-05-05T13:49:24.220Z,98787.56
2023-05-05T13:51:50.951Z,98804.69
2023-05-05T13:54:17.483Z,98801.47
2023-05-05T13:56:44.562Z,98804.22
2023-05-05T13:59:11.122Z,98770.19
2023-05-05T14:01:38.100Z,98768.31
2023-05-05T14:04:05.710Z,98766.41
2023-05-05T14:06:33.580Z,98794.09
2023-05-05T14:09:00.536Z,98766.50
2023-05-05T14:11:27.501Z,98768.72
2023-05-05T14:13:54.099Z,98763.13
2023-05-05T14:16:20.818Z,98786.69
2023-05-05T14:18:47.499Z,98782.25
2023-05-05T14:21:14.446Z,98767.19
2023-05-05T14:23:41.131Z,98753.06
2023-05-05T14:26:09.004Z,98752.97
2023-05-05T14:28:36.087Z,98766.03
2023-05-05T14:31:02.781Z,98743.19
2023-05-05T14:33:29.330Z,98729.66
2023-05-05T14:35:56.053Z,98735.69
2023-05-05T14:38:22.753Z,98761.91
2023-05-05T14:40:49.583Z,98732.44
2023-05-05T14:43:16.067Z,98760.66
2023-05-05T14:45:44.130Z,98733.13
2023-05-05T14:48:12.074Z,98716.03
2023-05-05T14:50:40.607Z,98741.56
2023-05-05T14:53:07.303Z,98718.34
2023-05-05T14:55:34.099Z,98727.50
2023-05-05T14:58:00.802Z,98718.50
2023-05-05T15:00:27.808Z,98693.53
2023-05-05T15:02:54.489Z,98737.06
2023-05-05T15:05:21.293Z,98705.31
2023-05-05T15:07:47.992Z,98734.94
2023-05-05T15:10:14.976Z,98744.31
2023-05-05T15:12:42.860Z,98725.09
2023-05-05T15:15:10.347Z,98712.78
2023-05-05T15:17:38.796Z,98733.94
2023-05-05T15:20:06.711Z,98719.09
2023-05-05T15:22:33.544Z,98718.81
2023-05-05T15:25:00.522Z,98709.66
2023-05-05T15:27:27.325Z,98708.28
2023-05-05T15:29:55.109Z,98711.31
2023-05-05T15:32:22.105Z,98726.09
2023-05-05T15:34:50.394Z,98700.13
2023-05-05T15:37:17.331Z,98708.91
2023-05-05T15:39:44.029Z,98697.44
2023-05-05T15:42:10.704Z,98715.34
2023-05-05T15:44:37.558Z,98681.03
2023-05-05T15:47:04.926Z,98705.91
2023-05-05T15:49:31.685Z,98675.63
2023-05-05T15:51:58.396Z,98677.72
2023-05-05T15:54:25.139Z,98687.84
2023-05-05T15:56:51.793Z,98720.22
2023-05-05T15:59:19.419Z,98703.56
2023-05-05T16:01:46.968Z,98700.13
2023-05-05T16:04:14.207Z,98697.44
2023-05-05T16:06:40.956Z,98713.03
2023-05-05T16:09:07.945Z,98698.69
2023-05-05T16:11:34.959Z,98667.88
2023-05-05T16:14:01.642Z,98667.53
2023-05-05T16:16:28.451Z,98693.56
2023-05-05T16:18:55.375Z,98675.25
2023-05-05T16:21:22.047Z,98675.78
2023-05-05T16:23:48.799Z,98704.09
2023-05-05T16:26:15.360Z,98673.81
2023-05-05T16:28:42.172Z,98701.22
2023-05-05T16:31:13.504Z,98695.69
2023-05-05T16:33:41.244Z,98682.03
2023-05-05T16:36:12.431Z,98659.50
2023-05-05T16:38:41.809Z,98685.44
2023-05-05T16:41:13.827Z,98684.16
2023-05-05T16:43:40.757Z,98685.81
2023-05-05T16:46:07.647Z,98659.50
2023-05-05T16:48:34.523Z,98656.16
2023-05-05T16:51:01.253Z,98698.38
2023-05-05T16:53:28.067Z,98667.81
2023-05-05T16:55:54.761Z,98662.25
2023-05-05T16:58:25.342Z,98666.56
2023-05-05T17:00:52.678Z,98633.25
2023-05-05T17:03:20.219Z,98681.66
2023-05-05T17:05:49.784Z,98669.75
2023-05-05T17:08:17.163Z,98661.22
2023-05-05T17:10:45.299Z,98679.34
2023-05-05T17:13:14.106Z,98676.38
2023-05-05T17:15:41.306Z,98614.34
2023-05-05T17:18:12.807Z,98654.78
2023-05-05T17:20:44.165Z,98648.03
2023-05-05T17:23:10.792Z,98651.13
2023-05-05T17:25:37.465Z,98644.19
2023-05-05T17:28:04.280Z,98658.19
2023-05-05T17:30:30.831Z,98652.22
2023-05-05T17:32:57.560Z,98627.00
2023-05-05T17:35:24.194Z,98661.59
2023-05-05T17:37:50.797Z,98650.31
2023-05-05T17:40:17.477Z,98664.88
2023-05-05T17:42:44.278Z,98659.84
2023-05-05T17:45:11.472Z,98662.84
2023-05-05T17:47:38.675Z,98653.25
2023-05-05T17:50:05.928Z,98671.91
2023-05-05T17:52:32.361Z,98659.88
2023-05-05T17:54:58.940Z,98665.69
2023-05-05T17:57:25.599Z,98658.06
2023-05-05T17:59:53.709Z,98675.88
2023-05-05T18:02:20.825Z,98670.97
2023-05-05T18:04:47.717Z,98654.28
2023-05-05T18:07:14.838Z,98651.00
2023-05-05T18:09:41.559Z,98686.63
2023-05-05T18:12:08.325Z,98682.00
2023-05-05T18:14:34.997Z,98662.53
2023-05-05T18:17:01.714Z,98668.31
2023-05-05T18:19:28.387Z,98679.00
2023-05-05T18:21:55.012Z,98689.69
2023-05-05T18:24:21.895Z,98676.50
2023-05-05T18:26:50.489Z,98685.31
2023-05-05T18:29:21.866Z,98697.94
2023-05-05T18:31:51.681Z,98695.16
2023-05-05T18:34:19.478Z,98668.31
2023-05-05T18:36:46.782Z,98676.50
2023-05-05T18:39:13.625Z,98708.59
2023-05-05T18:41:40.912Z,98669.91
2023-05-05T18:44:07.525Z,98712.41
2023-05-05T18:46:34.145Z,98701.72
2023-05-05T18:49:00.896Z,98713.47
2023-05-05T18:51:28.411Z,98709.03
2023-05-05T18:53:55.237Z,98697.78
2023-05-05T18:56:22.055Z,98719.41
2023-05-05T18:58:49.456Z,98681.81
2023-05-05T19:01:16.401Z,98701.25
2023-05-05T19:03:47.988Z,98723.44
2023-05-05T19:06:15.895Z,98713.59
2023-05-05T19:08:43.301Z,98686.91
2023-05-05T19:11:10.165Z,98705.31
2023-05-05T19:16:08.715Z,98695.91
2023-05-05T19:18:35.694Z,98665.63
2023-05-05T19:21:02.595Z,98660.09
2023-05-05T19:23:29.251Z,98722.47
2023-05-05T19:25:55.944Z,98720.00
2023-05-05T19:28:22.643Z,98716.38
2023-05-05T19:30:49.365Z,98698.50
2023-05-05T19:33:16.511Z,98708.38
2023-05-05T19:35:43.637Z,98712.47
2023-05-05T19:38:10.844Z,98690.66
2023-05-05T19:40:40.942Z,98725.59
2023-05-05T19:43:07.997Z,98698.16
2023-05-05T19:45:34.925Z,98713.88
2023-05-05T19:48:02.305Z,98722.84
2023-05-05T19:50:30.672Z,98726.91
2023-05-05T19:52:57.953Z,98711.94
2023-05-05T19:55:24.545Z,98742.94
2023-05-05T19:57:51.356Z,98720.25
2023-05-05T20:00:19.555Z,98718.09
2023-05-05T20:02:46.440Z,98711.03
2023-05-05T20:05:14.948Z,98717.56
2023-05-05T20:07:44.276Z,98740.31
2023-05-05T20:10:13.072Z,98760.38
2023-05-05T20:12:42.341Z,98753.28
2023-05-05T20:15:10.892Z,98739.66
2023-05-05T20:17:37.713Z,98737.66
2023-05-05T20:20:04.857Z,98721.13
2023-05-05T20:22:31.692Z,98725.19
2023-05-05T20:24:58.368Z,98722.16
2023-05-05T20:27:26.625Z,98704.44
2023-05-05T20:29:54.022Z,98731.91
2023-05-05T20:32:20.829Z,98762.47
2023-05-05T20:34:48.140Z,98760.06
2023-05-05T20:37:14.787Z,98761.13
2023-05-05T20:39:43.703Z,98766.53
2023-05-05T20:42:10.850Z,98767.44
2023-05-05T20:44:37.737Z,98728.19
2023-05-05T20:47:04.648Z,98768.31
2023-05-05T20:49:31.447Z,98757.78
2023-05-05T20:51:58.666Z,98738.50
2023-05-05T20:54:25.290Z,98731.34
2023-05-05T20:56:53.128Z,98718.81
2023-05-05T20:59:19.745Z,98737.97
2023-05-05T21:01:46.438Z,98752.50
2023-05-05T21:04:13.052Z,98750.72
2023-05-05T21:06:39.668Z,98728.50
2023-05-05T21:09:06.725Z,98744.09
2023-05-05T21:11:33.494Z,98748.22
2023-05-05T21:14:00.050Z,98713.75
2023-05-05T21:16:26.753Z,98732.66
2023-05-05T21:18:53.483Z,98703.28
2023-05-05T21:21:20.251Z,98742.16
2023-05-05T21:23:47.852Z,98748.66
2023-05-05T21:26:14.546Z,98740.50
2023-05-05T21:28:41.479Z,98743.69
2023-05-05T21:31:21.046Z,98740.22
2023-05-05T21:33:48.952Z,98691.28
2023-05-05T21:36:17.448Z,98712.34
2023-05-05T21:38:44.057Z,98712.56
2023-05-05T21:41:10.691Z,98734.81
2023-05-05T21:43:37.257Z,98735.97
2023-05-05T21:46:05.408Z,98721.56
2023-05-05T21:48:32.631Z,98703.97
2023-05-05T21:50:59.599Z,98741.53
2023-05-05T21:53:26.388Z,98704.31
2023-05-05T21:55:52.983Z,98751.72
2023-05-05T21:58:19.572Z,98734.44
2023-05-05T22:00:49.376Z,98739.06
2023-05-05T22:03:16.271Z,98717.78
2023-05-05T22:05:43.174Z,98744.84
2023-05-05T22:08:09.948Z,98744.00
2023-05-05T22:10:36.635Z,98706.44
2023-05-05T22:13:03.400Z,98723.09
2023-05-05T22:15:35.708Z,98748.28
2023-05-05T22:18:09.714Z,98723.47
2023-05-05T22:20:37.134Z,98697.34
2023-05-05T22:23:03.792Z,98702.19
2023-05-05T22:25:30.508Z,98703.59
2023-05-05T22:27:57.137Z,98703.16
2023-05-05T22:30:23.806Z,98723.00
2023-05-05T22:32:50.412Z,98697.47
2023-05-05T22:35:17.739Z,98734.31
2023-05-05T22:37:44.582Z,98714.81
2023-05-05T22:40:12.840Z,98733.50
2023-05-05T22:42:39.735Z,98735.28
2023-05-05T22:45:07.394Z,98728.44
2023-05-05T22:47:34.357Z,98721.94
2023-05-05T22:50:01.120Z,98742.38
2023-05-05T22:52:28.913Z,98742.03
2023-05-05T22:54:56.046Z,98748.16
2023-05-05T22:57:22.776Z,98710.56
2023-05-05T22:59:50.091Z,98710.81
2023-05-05T23:02:16.726Z,98700.06
2023-05-05T23:04:44.979Z,98741.78
2023-05-05T23:07:12.745Z,98710.56
2023-05-05T23:09:39.692Z,98700.88
2023-05-05T23:12:06.721Z,98740.38
2023-05-05T23:14:33.461Z,98736.00
2023-05-05T23:17:00.269Z,98727.72
2023-05-05T23:19:28.972Z,98720.28
2023-05-05T23:21:55.681Z,98722.63
2023-05-05T23:24:22.332Z,98736.59
2023-05-05T23:26:48.933Z,98712.09
2023-05-05T23:29:15.653Z,98735.38
2023-05-05T23:31:42.194Z,98732.66
2023-05-05T23:34:08.834Z,98725.91
2023-05-05T23:36:35.514Z,98725.81
2023-05-05T23:39:02.088Z,98729.34
2023-05-05T23:41:28.837Z,98729.69
2023-05-05T23:43:56.389Z,98737.03
2023-05-05T23:46:23.981Z,98730.66
2023-05-05T23:48:51.215Z,98714.94
2023-05-05T23:51:17.991Z,98712.09
2023-05-05T23:53:44.632Z,98711.97
2023-05-05T23:56:11.587Z,98698.50
2023-05-05T23:58:38.234Z,98695.03
